createdAt,value
2019-05-26T00:02:23.947Z,76.51
2019-05-26T00:04:50.287Z,76.55
2019-05-26T00:07:29.684Z,76.48
2019-05-26T00:09:44.250Z,76.52
2019-05-26T00:12:10.201Z,76.52
2019-05-26T00:14:36.116Z,76.60
2019-05-26T00:17:02.298Z,76.58
2019-05-26T00:19:28.228Z,76.54
2019-05-26T00:21:54.243Z,76.65
2019-05-26T00:24:20.335Z,76.81
2019-05-26T00:26:46.274Z,76.86
2019-05-26T00:29:12.204Z,76.75
2019-05-26T00:31:38.196Z,76.75
2019-05-26T00:34:04.212Z,76.90
2019-05-26T00:36:30.227Z,77.05
2019-05-26T00:38:56.219Z,77.09
2019-05-26T00:41:22.266Z,77.08
2019-05-26T00:43:48.284Z,77.06
2019-05-26T00:46:14.463Z,77.02
2019-05-26T00:48:40.517Z,77.04
2019-05-26T00:51:06.649Z,77.14
2019-05-26T00:53:32.849Z,77.14
2019-05-26T00:55:58.956Z,77.02
2019-05-26T00:58:24.978Z,76.94
2019-05-26T01:00:51.045Z,76.96
2019-05-26T01:03:17.165Z,76.91
2019-05-26T01:05:43.382Z,76.87
2019-05-26T01:08:09.728Z,76.97
2019-05-26T01:10:35.934Z,77.03
2019-05-26T01:13:02.125Z,77.09
2019-05-26T01:15:28.312Z,77.06
2019-05-26T01:17:54.357Z,77.09
2019-05-26T01:20:20.449Z,77.04
2019-05-26T01:22:46.457Z,76.97
2019-05-26T01:25:12.795Z,76.96
2019-05-26T01:27:38.855Z,76.96
2019-05-26T01:30:06.469Z,76.95
2019-05-26T01:32:32.473Z,76.95
2019-05-26T01:34:58.578Z,77.01
2019-05-26T01:37:24.861Z,77.13
2019-05-26T01:39:50.815Z,77.22
2019-05-26T01:42:16.826Z,77.36
2019-05-26T01:44:42.847Z,77.45
2019-05-26T01:47:08.909Z,77.48
2019-05-26T01:49:34.814Z,77.52
2019-05-26T01:52:01.219Z,77.56
2019-05-26T01:54:27.415Z,77.56
2019-05-26T01:56:53.419Z,77.52
2019-05-26T01:59:19.531Z,77.53
2019-05-26T02:01:45.437Z,77.51
2019-05-26T02:04:11.460Z,77.54
2019-05-26T02:06:37.528Z,77.40
2019-05-26T02:09:06.446Z,77.45
2019-05-26T02:11:32.354Z,77.45
2019-05-26T02:13:58.379Z,77.41
2019-05-26T02:16:24.289Z,77.48
2019-05-26T02:18:50.200Z,77.59
2019-05-26T02:21:16.325Z,77.63
2019-05-26T02:23:42.253Z,77.65
2019-05-26T02:26:08.261Z,77.60
2019-05-26T02:28:34.354Z,77.57
2019-05-26T02:31:00.404Z,77.57
2019-05-26T02:33:26.514Z,77.50
2019-05-26T02:35:52.726Z,77.52
2019-05-26T02:38:18.738Z,77.52
2019-05-26T02:40:44.843Z,77.49
2019-05-26T02:43:11.261Z,77.39
2019-05-26T02:45:37.422Z,77.40
2019-05-26T02:48:03.903Z,77.46
2019-05-26T02:50:30.082Z,77.50
2019-05-26T02:52:57.043Z,77.43
2019-05-26T02:55:23.634Z,77.30
2019-05-26T02:57:49.622Z,77.29
2019-05-26T03:00:36.154Z,77.37
2019-05-26T03:03:02.561Z,77.37
2019-05-26T03:05:30.153Z,77.17
2019-05-26T03:07:56.389Z,77.23
2019-05-26T03:10:22.608Z,77.29
2019-05-26T03:12:49.402Z,77.33
2019-05-26T03:15:15.647Z,77.41
2019-05-26T03:17:42.405Z,77.40
2019-05-26T03:20:11.438Z,77.33
2019-05-26T03:22:39.784Z,77.29
2019-05-26T03:25:06.050Z,77.32
2019-05-26T03:27:32.159Z,77.32
2019-05-26T03:29:58.283Z,77.39
2019-05-26T03:32:24.471Z,77.40
2019-05-26T03:34:50.397Z,77.40
2019-05-26T03:37:16.345Z,77.42
2019-05-26T03:39:45.909Z,77.37
2019-05-26T03:42:10.429Z,77.26
2019-05-26T03:44:36.350Z,77.29
2019-05-26T03:47:02.448Z,77.33
2019-05-26T03:49:28.368Z,77.34
2019-05-26T03:51:54.406Z,77.32
2019-05-26T03:54:20.394Z,77.32
2019-05-26T03:56:46.306Z,77.27
2019-05-26T03:59:12.358Z,77.31
2019-05-26T04:01:38.442Z,77.32
2019-05-26T04:04:04.527Z,77.34
2019-05-26T04:06:30.565Z,77.33
2019-05-26T04:08:56.562Z,77.33
2019-05-26T04:11:22.603Z,77.23
2019-05-26T04:13:48.558Z,77.11
2019-05-26T04:16:14.686Z,77.09
2019-05-26T04:18:40.685Z,77.11
2019-05-26T04:21:06.628Z,77.16
2019-05-26T04:23:32.717Z,77.17
2019-05-26T04:25:58.730Z,77.16
2019-05-26T04:28:24.676Z,77.14
2019-05-26T04:30:50.711Z,77.04
2019-05-26T04:33:16.724Z,76.99
2019-05-26T04:35:42.667Z,76.99
2019-05-26T04:38:08.751Z,76.96
2019-05-26T04:40:35.255Z,76.96
2019-05-26T04:43:01.174Z,76.94
2019-05-26T04:45:27.320Z,76.92
2019-05-26T04:47:53.231Z,76.89
2019-05-26T04:50:19.379Z,76.84
2019-05-26T04:53:04.374Z,76.75
2019-05-26T04:55:13.284Z,76.71
2019-05-26T04:57:39.210Z,76.64
2019-05-26T05:00:06.171Z,76.55
2019-05-26T05:02:32.081Z,76.48
2019-05-26T05:04:57.992Z,76.36
2019-05-26T05:07:28.071Z,76.22
2019-05-26T05:09:51.912Z,76.18
2019-05-26T05:12:18.182Z,76.16
2019-05-26T05:14:44.362Z,76.09
2019-05-26T05:17:10.275Z,75.95
2019-05-26T05:19:36.186Z,75.76
2019-05-26T05:22:02.654Z,75.67
2019-05-26T05:24:28.573Z,75.66
2019-05-26T05:26:54.570Z,75.65
2019-05-26T05:29:20.698Z,75.58
2019-05-26T05:31:46.608Z,75.45
2019-05-26T05:34:12.639Z,75.21
2019-05-26T05:36:38.706Z,75.08
2019-05-26T05:39:06.423Z,75.04
2019-05-26T05:41:32.484Z,74.99
2019-05-26T05:43:58.582Z,74.87
2019-05-26T05:46:24.466Z,74.68
2019-05-26T05:48:50.399Z,74.52
2019-05-26T05:51:16.476Z,74.41
2019-05-26T05:53:42.379Z,74.25
2019-05-26T05:56:08.486Z,74.08
2019-05-26T05:58:34.540Z,73.80
2019-05-26T06:01:00.573Z,73.25
2019-05-26T06:03:26.588Z,72.95
2019-05-26T06:05:52.710Z,72.57
2019-05-26T06:08:18.976Z,72.43
2019-05-26T06:10:45.004Z,72.24
2019-05-26T06:13:11.220Z,72.12
2019-05-26T06:15:37.223Z,71.93
2019-05-26T06:18:03.371Z,71.91
2019-05-26T06:20:29.615Z,71.69
2019-05-26T06:22:55.565Z,71.42
2019-05-26T06:25:21.580Z,70.98
2019-05-26T06:27:47.668Z,70.81
2019-05-26T06:30:14.072Z,70.70
2019-05-26T06:32:39.964Z,70.60
2019-05-26T06:35:06.309Z,69.83
2019-05-26T06:37:32.338Z,69.60
2019-05-26T06:39:58.671Z,69.56
2019-05-26T06:42:24.803Z,69.35
2019-05-26T06:44:53.886Z,69.11
2019-05-26T06:47:18.518Z,68.81
2019-05-26T06:49:44.642Z,68.45
2019-05-26T06:52:10.542Z,68.13
2019-05-26T06:54:36.447Z,67.96
2019-05-26T06:57:02.854Z,67.42
2019-05-26T06:59:28.749Z,67.09
2019-05-26T07:01:54.699Z,66.85
2019-05-26T07:04:20.845Z,66.73
2019-05-26T07:06:46.746Z,66.65
2019-05-26T07:09:12.657Z,66.47
2019-05-26T07:11:54.021Z,66.20
2019-05-26T07:14:06.605Z,66.16
2019-05-26T07:16:38.027Z,65.98
2019-05-26T07:19:00.563Z,65.83
2019-05-26T07:21:26.553Z,65.26
2019-05-26T07:23:52.528Z,64.82
2019-05-26T07:26:18.749Z,64.67
2019-05-26T07:28:44.648Z,64.54
2019-05-26T07:31:10.652Z,63.91
2019-05-26T07:33:36.789Z,63.53
2019-05-26T07:36:02.883Z,63.31
2019-05-26T07:38:28.791Z,62.99
2019-05-26T07:40:54.849Z,62.68
2019-05-26T07:43:20.778Z,62.30
2019-05-26T07:45:46.781Z,61.70
2019-05-26T07:48:13.100Z,61.92
2019-05-26T07:50:39.094Z,61.82
2019-05-26T07:53:05.016Z,61.77
2019-05-26T07:55:31.137Z,61.61
2019-05-26T07:57:57.051Z,61.21
2019-05-26T08:00:23.772Z,60.87
2019-05-26T08:02:49.773Z,60.55
2019-05-26T08:05:16.114Z,60.46
2019-05-26T08:07:42.049Z,60.45
2019-05-26T08:10:10.357Z,59.98
2019-05-26T08:12:36.365Z,59.39
2019-05-26T08:15:03.902Z,59.14
2019-05-26T08:17:29.894Z,58.70
2019-05-26T08:19:55.892Z,58.58
2019-05-26T08:22:21.917Z,58.31
2019-05-26T08:24:47.902Z,58.09
2019-05-26T08:27:13.806Z,57.83
2019-05-26T08:29:39.743Z,57.31
2019-05-26T08:32:05.995Z,57.15
2019-05-26T08:34:31.987Z,57.08
2019-05-26T08:36:58.039Z,56.76
2019-05-26T08:39:24.097Z,56.29
2019-05-26T08:41:49.993Z,56.04
2019-05-26T08:44:15.923Z,55.97
2019-05-26T08:46:42.146Z,55.72
2019-05-26T08:49:08.042Z,55.60
2019-05-26T08:51:34.159Z,55.61
2019-05-26T08:54:00.331Z,55.91
2019-05-26T08:56:26.241Z,56.08
2019-05-26T08:58:52.272Z,56.02
2019-05-26T09:01:18.436Z,56.21
2019-05-26T09:03:44.375Z,56.40
2019-05-26T09:06:10.325Z,56.79
2019-05-26T09:08:36.407Z,57.05
2019-05-26T09:11:02.541Z,57.07
2019-05-26T09:13:28.542Z,56.90
2019-05-26T09:15:54.645Z,56.97
2019-05-26T09:18:20.700Z,56.72
2019-05-26T09:20:46.754Z,56.88
2019-05-26T09:23:12.910Z,56.84
2019-05-26T09:25:38.945Z,56.95
2019-05-26T09:28:04.965Z,56.96
2019-05-26T09:30:30.953Z,56.60
2019-05-26T09:32:56.875Z,56.55
2019-05-26T09:35:22.979Z,56.76
2019-05-26T09:37:49.047Z,57.08
2019-05-26T09:40:15.672Z,57.27
2019-05-26T09:42:41.591Z,57.46
2019-05-26T09:45:08.174Z,57.34
2019-05-26T09:47:34.229Z,56.59
2019-05-26T09:50:00.145Z,56.42
2019-05-26T09:52:26.360Z,55.57
2019-05-26T09:54:52.259Z,55.20
2019-05-26T09:57:18.177Z,54.40
2019-05-26T09:59:44.335Z,53.12
2019-05-26T10:02:10.439Z,52.56
2019-05-26T10:04:36.453Z,52.29
2019-05-26T10:07:02.753Z,51.58
2019-05-26T10:09:28.681Z,51.17
2019-05-26T10:11:54.794Z,50.52
2019-05-26T10:14:20.873Z,49.57
2019-05-26T10:16:47.013Z,49.28
2019-05-26T10:19:13.000Z,48.96
2019-05-26T10:21:39.090Z,48.78
2019-05-26T10:24:05.282Z,48.55
2019-05-26T10:26:31.187Z,47.99
2019-05-26T10:29:00.566Z,46.80
2019-05-26T10:31:25.237Z,46.94
2019-05-26T10:33:51.131Z,46.88
2019-05-26T10:36:17.241Z,47.28
2019-05-26T10:38:43.163Z,46.77
2019-05-26T10:41:09.155Z,45.38
2019-05-26T10:43:47.035Z,45.48
2019-05-26T10:46:03.383Z,44.60
2019-05-26T10:48:29.320Z,45.11
2019-05-26T10:50:55.461Z,45.25
2019-05-26T10:53:21.393Z,45.08
2019-05-26T10:55:47.482Z,44.72
2019-05-26T10:58:13.470Z,44.77
2019-05-26T11:00:39.597Z,44.58
2019-05-26T11:03:05.747Z,44.97
2019-05-26T11:05:31.832Z,45.34
2019-05-26T11:07:57.756Z,45.24
2019-05-26T11:10:23.766Z,45.27
2019-05-26T11:12:50.037Z,45.00
2019-05-26T11:15:16.344Z,44.71
2019-05-26T11:17:42.266Z,44.92
2019-05-26T11:20:09.351Z,45.05
2019-05-26T11:22:35.367Z,44.97
2019-05-26T11:25:01.578Z,45.26
2019-05-26T11:27:27.665Z,44.97
2019-05-26T11:29:53.579Z,45.09
2019-05-26T11:32:19.539Z,45.47
2019-05-26T11:35:00.403Z,45.68
2019-05-26T11:37:13.395Z,45.57
2019-05-26T11:39:39.436Z,45.69
2019-05-26T11:42:13.450Z,45.57
2019-05-26T11:44:33.519Z,45.51
2019-05-26T11:46:59.991Z,45.32
2019-05-26T11:49:26.040Z,45.09
2019-05-26T11:51:52.054Z,44.99
2019-05-26T11:54:17.985Z,45.36
2019-05-26T11:56:43.971Z,45.54
2019-05-26T11:59:09.987Z,45.26
2019-05-26T12:01:35.899Z,45.52
2019-05-26T12:04:01.967Z,45.63
2019-05-26T12:06:28.002Z,45.99
2019-05-26T12:08:53.882Z,45.95
2019-05-26T12:11:20.043Z,46.22
2019-05-26T12:13:45.989Z,46.48
2019-05-26T12:16:12.006Z,46.70
2019-05-26T12:18:38.262Z,46.61
2019-05-26T12:21:05.343Z,46.61
2019-05-26T12:23:31.244Z,46.74
2019-05-26T12:25:57.300Z,46.90
2019-05-26T12:28:23.319Z,47.03
2019-05-26T12:30:50.328Z,47.30
2019-05-26T12:33:16.446Z,47.07
2019-05-26T12:35:44.406Z,46.92
2019-05-26T12:38:10.625Z,46.72
2019-05-26T12:40:36.656Z,46.54
2019-05-26T12:43:02.876Z,46.61
2019-05-26T12:45:28.883Z,46.58
2019-05-26T12:47:55.236Z,46.62
2019-05-26T12:50:23.161Z,46.61
2019-05-26T12:52:49.218Z,46.73
2019-05-26T12:55:15.439Z,46.99
2019-05-26T12:57:41.442Z,46.86
2019-05-26T13:00:09.258Z,46.99
2019-05-26T13:02:35.453Z,47.47
2019-05-26T13:05:01.455Z,47.71
2019-05-26T13:07:27.861Z,47.66
2019-05-26T13:09:53.999Z,47.53
2019-05-26T13:12:19.909Z,47.72
2019-05-26T13:14:45.827Z,47.83
2019-05-26T13:17:11.914Z,47.86
2019-05-26T13:19:37.926Z,47.71
2019-05-26T13:22:03.933Z,47.76
2019-05-26T13:24:29.974Z,47.84
2019-05-26T13:26:55.890Z,47.86
2019-05-26T13:29:25.510Z,47.76
2019-05-26T13:31:49.702Z,47.78
2019-05-26T13:34:15.707Z,47.59
2019-05-26T13:36:41.624Z,47.36
2019-05-26T13:39:08.123Z,46.67
2019-05-26T13:41:34.142Z,46.09
2019-05-26T13:44:00.039Z,45.33
2019-05-26T13:46:26.099Z,45.11
2019-05-26T13:48:52.252Z,45.12
2019-05-26T13:51:18.255Z,44.81
2019-05-26T13:53:44.544Z,44.71
2019-05-26T13:56:10.667Z,44.72
2019-05-26T13:58:36.795Z,44.65
2019-05-26T14:01:03.323Z,44.85
2019-05-26T14:03:29.342Z,44.94
2019-05-26T14:05:56.914Z,44.64
2019-05-26T14:08:23.133Z,44.93
2019-05-26T14:10:49.144Z,45.17
2019-05-26T14:13:15.269Z,45.56
2019-05-26T14:15:41.643Z,45.65
2019-05-26T14:18:08.124Z,45.67
2019-05-26T14:20:39.146Z,45.70
2019-05-26T14:23:06.935Z,45.68
2019-05-26T14:25:34.273Z,45.43
2019-05-26T14:28:00.168Z,45.31
2019-05-26T14:30:26.311Z,44.86
2019-05-26T14:32:52.239Z,44.93
2019-05-26T14:35:18.241Z,44.84
2019-05-26T14:37:44.330Z,44.64
2019-05-26T14:40:10.547Z,44.71
2019-05-26T14:42:36.474Z,44.84
2019-05-26T14:45:05.015Z,45.04
2019-05-26T14:47:31.338Z,45.27
2019-05-26T14:49:57.363Z,45.40
2019-05-26T14:52:23.541Z,45.57
2019-05-26T14:54:49.453Z,45.80
2019-05-26T14:57:15.358Z,46.05
2019-05-26T14:59:41.427Z,46.18
2019-05-26T15:02:07.458Z,46.26
2019-05-26T15:04:33.467Z,46.28
2019-05-26T15:06:59.627Z,46.35
2019-05-26T15:09:25.689Z,46.58
2019-05-26T15:11:51.558Z,46.81
2019-05-26T15:14:19.646Z,46.98
2019-05-26T15:16:45.554Z,46.74
2019-05-26T15:19:11.559Z,46.39
2019-05-26T15:21:37.717Z,46.32
2019-05-26T15:24:03.869Z,46.33
2019-05-26T15:26:29.780Z,46.45
2019-05-26T15:28:55.890Z,46.54
2019-05-26T15:31:21.800Z,46.65
2019-05-26T15:33:47.723Z,46.59
2019-05-26T15:36:16.222Z,46.72
2019-05-26T15:38:43.466Z,46.73
2019-05-26T15:41:09.567Z,46.77
2019-05-26T15:43:35.646Z,46.92
2019-05-26T15:46:01.769Z,46.97
2019-05-26T15:48:27.663Z,46.83
2019-05-26T15:50:53.978Z,46.85
2019-05-26T15:53:19.974Z,46.84
2019-05-26T15:55:46.010Z,46.84
2019-05-26T15:58:12.080Z,46.96
2019-05-26T16:00:38.234Z,47.01
2019-05-26T16:03:04.297Z,47.13
2019-05-26T16:05:30.510Z,47.25
2019-05-26T16:07:56.446Z,47.37
2019-05-26T16:10:24.956Z,47.38
2019-05-26T16:12:52.955Z,47.33
2019-05-26T16:15:19.067Z,47.26
2019-05-26T16:17:45.118Z,47.26
2019-05-26T16:20:11.592Z,47.29
2019-05-26T16:22:37.595Z,47.37
2019-05-26T16:25:04.535Z,47.47
2019-05-26T16:27:33.244Z,47.30
2019-05-26T16:29:59.371Z,47.40
2019-05-26T16:32:25.510Z,47.51
2019-05-26T16:34:51.685Z,46.47
2019-05-26T16:37:17.820Z,47.03
2019-05-26T16:39:43.735Z,47.21
2019-05-26T16:42:10.088Z,47.35
2019-05-26T16:44:36.051Z,47.39
2019-05-26T16:47:02.154Z,47.39
2019-05-26T16:49:28.238Z,47.49
2019-05-26T16:51:54.355Z,47.66
2019-05-26T16:54:20.324Z,47.74
2019-05-26T16:56:46.488Z,47.56
2019-05-26T16:59:12.373Z,47.56
2019-05-26T17:01:38.326Z,47.54
2019-05-26T17:04:04.593Z,47.41
2019-05-26T17:06:30.500Z,47.44
2019-05-26T17:08:56.606Z,47.63
2019-05-26T17:11:22.697Z,47.87
2019-05-26T17:13:48.595Z,47.90
2019-05-26T17:16:14.737Z,47.74
2019-05-26T17:18:40.889Z,47.84
2019-05-26T17:21:06.798Z,48.00
2019-05-26T17:23:32.727Z,48.03
2019-05-26T17:25:58.888Z,48.17
2019-05-26T17:28:24.902Z,48.27
2019-05-26T17:30:50.952Z,48.24
2019-05-26T17:33:17.126Z,48.21
2019-05-26T17:35:43.131Z,48.23
2019-05-26T17:38:09.245Z,48.28
2019-05-26T17:40:35.233Z,48.42
2019-05-26T17:43:02.211Z,48.59
2019-05-26T17:45:28.250Z,48.70
2019-05-26T17:47:54.259Z,48.70
2019-05-26T17:50:20.589Z,48.67
2019-05-26T17:52:46.553Z,48.75
2019-05-26T17:55:14.221Z,48.78
2019-05-26T17:57:40.139Z,48.73
2019-05-26T18:00:09.831Z,48.72
2019-05-26T18:02:36.042Z,48.73
2019-05-26T18:05:02.364Z,48.80
2019-05-26T18:07:28.321Z,49.00
2019-05-26T18:09:54.474Z,49.05
2019-05-26T18:12:20.434Z,49.11
2019-05-26T18:14:46.459Z,49.07
2019-05-26T18:17:12.441Z,49.17
2019-05-26T18:19:38.383Z,49.34
2019-05-26T18:22:04.552Z,49.43
2019-05-26T18:24:30.703Z,49.51
2019-05-26T18:26:56.610Z,49.53
2019-05-26T18:29:22.681Z,49.61
2019-05-26T18:31:48.833Z,49.70
2019-05-26T18:34:14.864Z,49.75
2019-05-26T18:36:40.911Z,49.81
2019-05-26T18:39:07.973Z,49.67
2019-05-26T18:41:33.868Z,49.65
2019-05-26T18:43:59.806Z,49.77
2019-05-26T18:46:25.987Z,49.85
2019-05-26T18:48:51.996Z,49.89
2019-05-26T18:51:17.994Z,49.94
2019-05-26T18:53:44.296Z,50.08
2019-05-26T18:56:10.295Z,50.23
2019-05-26T18:58:36.240Z,50.33
2019-05-26T19:01:03.044Z,50.37
2019-05-26T19:03:29.055Z,50.31
2019-05-26T19:05:54.950Z,50.28
2019-05-26T19:08:21.127Z,50.44
2019-05-26T19:10:47.123Z,50.48
2019-05-26T19:13:13.314Z,50.62
2019-05-26T19:15:39.687Z,50.82
2019-05-26T19:18:18.815Z,50.91
2019-05-26T19:20:33.554Z,50.86
2019-05-26T19:22:59.653Z,51.00
2019-05-26T19:25:25.773Z,51.23
2019-05-26T19:27:51.801Z,51.33
2019-05-26T19:30:18.134Z,51.39
2019-05-26T19:32:44.030Z,51.45
2019-05-26T19:35:10.147Z,51.64
2019-05-26T19:37:36.466Z,51.86
2019-05-26T19:40:04.680Z,52.09
2019-05-26T19:42:30.686Z,52.38
2019-05-26T19:44:56.905Z,52.61
2019-05-26T19:47:22.816Z,52.80
2019-05-26T19:49:48.706Z,52.93
2019-05-26T19:52:14.806Z,53.10
2019-05-26T19:54:40.719Z,53.25
2019-05-26T19:57:06.914Z,53.37
2019-05-26T19:59:33.119Z,53.49
2019-05-26T20:02:16.928Z,53.69
2019-05-26T20:04:27.127Z,53.97
2019-05-26T20:06:53.332Z,54.29
2019-05-26T20:09:19.338Z,54.43
2019-05-26T20:11:45.231Z,54.56
2019-05-26T20:14:11.455Z,54.78
2019-05-26T20:16:37.369Z,54.93
2019-05-26T20:19:03.489Z,55.04
2019-05-26T20:21:29.611Z,55.19
2019-05-26T20:23:55.517Z,55.42
2019-05-26T20:26:21.547Z,55.65
2019-05-26T20:28:47.560Z,55.81
2019-05-26T20:31:13.473Z,55.89
2019-05-26T20:33:39.868Z,56.00
2019-05-26T20:36:05.989Z,56.16
2019-05-26T20:38:31.882Z,56.27
2019-05-26T20:40:57.805Z,56.44
2019-05-26T20:43:25.133Z,56.58
2019-05-26T20:45:51.279Z,56.61
2019-05-26T20:48:17.282Z,56.58
2019-05-26T20:50:43.392Z,56.68
2019-05-26T20:53:09.291Z,56.81
2019-05-26T20:55:35.201Z,56.94
2019-05-26T20:58:01.313Z,57.06
2019-05-26T21:00:27.215Z,57.21
2019-05-26T21:02:55.377Z,57.42
2019-05-26T21:05:21.498Z,57.59
2019-05-26T21:07:47.410Z,57.71
2019-05-26T21:10:14.131Z,57.83
2019-05-26T21:12:40.559Z,57.95
2019-05-26T21:15:07.110Z,58.09
2019-05-26T21:17:33.038Z,58.29
2019-05-26T21:19:59.053Z,58.40
2019-05-26T21:22:25.067Z,58.49
2019-05-26T21:24:50.977Z,58.54
2019-05-26T21:27:17.064Z,58.60
2019-05-26T21:29:42.949Z,58.66
2019-05-26T21:32:08.971Z,58.76
2019-05-26T21:34:34.985Z,58.91
2019-05-26T21:37:00.900Z,59.07
2019-05-26T21:39:26.805Z,59.30
2019-05-26T21:41:52.826Z,59.56
2019-05-26T21:44:18.836Z,59.71
2019-05-26T21:46:44.724Z,59.83
2019-05-26T21:49:10.767Z,59.90
2019-05-26T21:51:36.866Z,60.00
2019-05-26T21:54:03.045Z,60.06
2019-05-26T21:56:29.187Z,60.08
2019-05-26T21:58:55.097Z,60.13
2019-05-26T22:01:21.014Z,60.25
2019-05-26T22:03:47.031Z,60.31
2019-05-26T22:06:13.239Z,60.43
2019-05-26T22:08:39.247Z,60.63
2019-05-26T22:11:05.428Z,60.77
2019-05-26T22:13:31.366Z,60.93
2019-05-26T22:15:57.564Z,61.04
2019-05-26T22:18:23.960Z,61.19
2019-05-26T22:20:50.299Z,61.42
2019-05-26T22:23:16.555Z,61.50
2019-05-26T22:25:43.003Z,61.67
2019-05-26T22:28:09.239Z,61.78
2019-05-26T22:30:35.506Z,61.90
2019-05-26T22:33:03.396Z,62.01
2019-05-26T22:35:29.839Z,62.10
2019-05-26T22:37:56.077Z,62.23
2019-05-26T22:40:22.437Z,62.30
2019-05-26T22:42:48.789Z,62.41
2019-05-26T22:45:15.728Z,62.49
2019-05-26T22:47:42.163Z,62.56
2019-05-26T22:50:09.243Z,62.62
2019-05-26T22:52:35.446Z,62.68
2019-05-26T22:55:02.088Z,62.75
2019-05-26T22:57:28.335Z,62.88
2019-05-26T22:59:54.587Z,62.99
2019-05-26T23:02:21.015Z,63.14
2019-05-26T23:04:47.269Z,63.24
2019-05-26T23:07:13.716Z,63.34
2019-05-26T23:09:40.142Z,63.42
2019-05-26T23:12:06.381Z,63.47
2019-05-26T23:14:32.711Z,63.54
2019-05-26T23:16:59.207Z,63.63
2019-05-26T23:19:25.462Z,63.68
2019-05-26T23:21:51.788Z,63.76
2019-05-26T23:24:18.216Z,63.88
2019-05-26T23:26:44.342Z,64.04
2019-05-26T23:29:10.466Z,64.20
2019-05-26T23:31:36.465Z,64.31
2019-05-26T23:34:02.484Z,64.42
2019-05-26T23:36:28.396Z,64.57
2019-05-26T23:38:54.483Z,64.68
2019-05-26T23:41:20.383Z,64.73
2019-05-26T23:43:46.519Z,64.82
2019-05-26T23:46:12.695Z,64.83
2019-05-26T23:48:38.588Z,64.88
2019-05-26T23:51:04.722Z,64.92
2019-05-26T23:53:30.827Z,64.99
2019-05-26T23:55:56.732Z,65.10
2019-05-26T23:58:22.629Z,65.17
